createdAt,value
2017-01-22T00:00:53.508Z,0
2017-01-22T00:02:05.134Z,0
2017-01-22T00:03:16.522Z,0
2017-01-22T00:04:27.968Z,0
2017-01-22T00:05:39.364Z,0
2017-01-22T00:06:50.757Z,0
2017-01-22T00:08:02.351Z,0
2017-01-22T00:09:13.944Z,0
2017-01-22T00:10:25.386Z,0
2017-01-22T00:11:36.778Z,0
2017-01-22T00:12:48.168Z,0
2017-01-22T00:13:59.558Z,0
2017-01-22T00:15:10.960Z,0
2017-01-22T00:16:22.404Z,0
2017-01-22T00:17:33.829Z,0
2017-01-22T00:18:45.227Z,0
2017-01-22T00:19:56.625Z,0
2017-01-22T00:21:08.025Z,0
2017-01-22T00:22:19.660Z,0
2017-01-22T00:23:31.459Z,0
2017-01-22T00:24:42.852Z,0
2017-01-22T00:25:54.852Z,0
2017-01-22T00:27:06.246Z,0
2017-01-22T00:28:17.912Z,0
2017-01-22T00:29:29.296Z,0
2017-01-22T00:30:40.712Z,0
2017-01-22T00:31:52.106Z,0
2017-01-22T00:33:03.499Z,0
2017-01-22T00:34:14.942Z,0
2017-01-22T00:35:26.337Z,0
2017-01-22T00:36:37.725Z,0
2017-01-22T00:37:49.118Z,0
2017-01-22T00:39:00.504Z,0
2017-01-22T00:40:11.951Z,0
2017-01-22T00:41:23.353Z,0
2017-01-22T00:42:34.749Z,0
2017-01-22T00:43:46.146Z,0
2017-01-22T00:44:57.743Z,0
2017-01-22T00:46:09.194Z,0
2017-01-22T00:47:20.585Z,0
2017-01-22T00:48:31.977Z,0
2017-01-22T00:49:43.360Z,0
2017-01-22T00:50:54.748Z,0
2017-01-22T00:52:06.192Z,0
2017-01-22T00:53:17.791Z,0
2017-01-22T00:54:29.186Z,0
2017-01-22T00:55:40.569Z,0
2017-01-22T00:56:52.159Z,0
2017-01-22T00:58:03.602Z,0
2017-01-22T00:59:15.022Z,0
2017-01-22T01:00:26.423Z,0
2017-01-22T01:01:38.012Z,0
2017-01-22T01:02:49.413Z,0
2017-01-22T01:04:01.061Z,0
2017-01-22T01:05:12.453Z,0
2017-01-22T01:06:23.853Z,0
2017-01-22T01:07:35.244Z,0
2017-01-22T01:08:46.636Z,0
2017-01-22T01:09:58.077Z,0
2017-01-22T01:11:09.469Z,0
2017-01-22T01:12:21.064Z,0
2017-01-22T01:13:32.453Z,0
2017-01-22T01:14:44.052Z,0
2017-01-22T01:15:55.497Z,0
2017-01-22T01:17:06.891Z,0
2017-01-22T01:18:18.482Z,0
2017-01-22T01:19:29.883Z,0
2017-01-22T01:20:41.282Z,0
2017-01-22T01:21:52.723Z,0
2017-01-22T01:23:04.114Z,0
2017-01-22T01:24:15.505Z,0
2017-01-22T01:25:26.896Z,0
2017-01-22T01:26:38.289Z,0
2017-01-22T01:27:49.732Z,0
2017-01-22T01:29:01.124Z,0
2017-01-22T01:30:12.536Z,0
2017-01-22T01:31:23.928Z,0
2017-01-22T01:32:35.322Z,0
2017-01-22T01:33:46.772Z,0
2017-01-22T01:34:58.169Z,0
2017-01-22T01:36:09.561Z,0
2017-01-22T01:37:20.963Z,0
2017-01-22T01:38:32.356Z,0
2017-01-22T01:39:43.798Z,0
2017-01-22T01:40:55.389Z,0
2017-01-22T01:42:06.784Z,0
2017-01-22T01:43:18.176Z,0
2017-01-22T01:44:29.565Z,0
2017-01-22T01:45:41.009Z,0
2017-01-22T01:46:52.407Z,0
2017-01-22T01:48:03.831Z,0
2017-01-22T01:49:15.434Z,0
2017-01-22T01:50:26.826Z,0
2017-01-22T01:51:38.267Z,0
2017-01-22T01:52:49.865Z,0
2017-01-22T01:54:01.266Z,0
2017-01-22T01:55:12.660Z,0
2017-01-22T01:56:24.058Z,0
2017-01-22T01:57:35.500Z,0
2017-01-22T01:58:47.093Z,0
2017-01-22T01:59:58.488Z,0
2017-01-22T02:01:09.876Z,0
2017-01-22T02:02:21.264Z,0
2017-01-22T02:03:32.704Z,0
2017-01-22T02:04:44.093Z,0
2017-01-22T02:05:55.484Z,0
2017-01-22T02:07:06.876Z,0
2017-01-22T02:08:18.271Z,0
2017-01-22T02:09:29.910Z,0
2017-01-22T02:10:41.310Z,0
2017-01-22T02:11:52.703Z,0
2017-01-22T02:13:04.090Z,0
2017-01-22T02:14:15.703Z,0
2017-01-22T02:15:27.136Z,0
2017-01-22T02:16:38.529Z,0
2017-01-22T02:17:49.922Z,0
2017-01-22T02:19:01.314Z,0
2017-01-22T02:20:12.720Z,0
2017-01-22T02:21:24.163Z,0
2017-01-22T02:22:35.758Z,0
2017-01-22T02:23:47.151Z,0
2017-01-22T02:24:58.546Z,0
2017-01-22T02:26:09.931Z,0
2017-01-22T02:27:21.375Z,0
2017-01-22T02:28:32.767Z,0
2017-01-22T02:29:44.163Z,0
2017-01-22T02:30:55.559Z,0
2017-01-22T02:32:06.946Z,0
2017-01-22T02:33:18.389Z,0
2017-01-22T02:34:29.794Z,0
2017-01-22T02:35:41.210Z,0
2017-01-22T02:36:52.808Z,0
2017-01-22T02:38:04.407Z,0
2017-01-22T02:39:15.852Z,0
2017-01-22T02:40:27.252Z,0
2017-01-22T02:41:38.645Z,0
2017-01-22T02:42:50.042Z,0
2017-01-22T02:44:01.631Z,0
2017-01-22T02:45:13.071Z,0
2017-01-22T02:46:24.463Z,0
2017-01-22T02:47:35.847Z,0
2017-01-22T02:48:47.243Z,0
2017-01-22T02:49:58.834Z,0
2017-01-22T02:51:10.273Z,0
2017-01-22T02:52:21.664Z,0
2017-01-22T02:53:33.084Z,0
2017-01-22T02:54:44.469Z,0
2017-01-22T02:55:55.861Z,0
2017-01-22T02:57:07.309Z,0
2017-01-22T02:58:18.703Z,0
2017-01-22T02:59:30.093Z,0
2017-01-22T03:00:41.494Z,0
2017-01-22T03:01:52.887Z,0
2017-01-22T03:03:04.355Z,0
2017-01-22T03:04:15.745Z,0
2017-01-22T03:05:27.343Z,0
2017-01-22T03:06:38.738Z,0
2017-01-22T03:07:50.129Z,0
2017-01-22T03:09:01.567Z,0
2017-01-22T03:10:12.962Z,0
2017-01-22T03:11:24.348Z,0
2017-01-22T03:12:35.768Z,0
2017-01-22T03:13:47.165Z,0
2017-01-22T03:14:58.634Z,0
2017-01-22T03:16:10.229Z,0
2017-01-22T03:17:21.614Z,0
2017-01-22T03:18:33.009Z,0
2017-01-22T03:19:44.410Z,0
2017-01-22T03:20:55.855Z,0
2017-01-22T03:22:07.246Z,0
2017-01-22T03:23:18.645Z,0
2017-01-22T03:24:30.044Z,0
2017-01-22T03:25:41.436Z,0
2017-01-22T03:26:52.877Z,0
2017-01-22T03:28:04.275Z,0
2017-01-22T03:29:15.670Z,0
2017-01-22T03:30:27.060Z,0
2017-01-22T03:31:38.452Z,0
2017-01-22T03:32:49.894Z,0
2017-01-22T03:34:01.286Z,0
2017-01-22T03:35:12.677Z,0
2017-01-22T03:36:24.274Z,0
2017-01-22T03:37:35.673Z,0
2017-01-22T03:38:47.120Z,0
2017-01-22T03:39:58.908Z,0
2017-01-22T03:41:10.504Z,0
2017-01-22T03:42:22.090Z,0
2017-01-22T03:43:33.478Z,0
2017-01-22T03:44:44.925Z,0
2017-01-22T03:45:56.319Z,0
2017-01-22T03:47:07.908Z,0
2017-01-22T03:48:19.298Z,0
2017-01-22T03:49:30.683Z,0
2017-01-22T03:50:42.321Z,0
2017-01-22T03:51:53.714Z,0
2017-01-22T03:53:05.112Z,0
2017-01-22T03:54:16.711Z,0
2017-01-22T03:55:28.099Z,0
2017-01-22T03:56:39.541Z,0
2017-01-22T03:57:50.934Z,0
2017-01-22T03:59:02.338Z,0
2017-01-22T04:00:13.736Z,0
2017-01-22T04:01:25.132Z,0
2017-01-22T04:02:36.569Z,0
2017-01-22T04:03:47.958Z,0
2017-01-22T04:04:59.555Z,0
2017-01-22T04:06:10.949Z,0
2017-01-22T04:07:22.357Z,0
2017-01-22T04:08:33.805Z,0
2017-01-22T04:09:45.401Z,0
2017-01-22T04:10:56.793Z,0
2017-01-22T04:12:08.196Z,0
2017-01-22T04:13:19.591Z,0
2017-01-22T04:14:31.067Z,0
2017-01-22T04:15:42.465Z,0
2017-01-22T04:16:54.068Z,0
2017-01-22T04:18:05.456Z,0
2017-01-22T04:19:16.843Z,0
2017-01-22T04:20:28.283Z,0
2017-01-22T04:21:39.705Z,0
2017-01-22T04:22:51.098Z,0
2017-01-22T04:24:02.683Z,0
2017-01-22T04:25:14.070Z,0
2017-01-22T04:26:25.736Z,0
2017-01-22T04:27:37.128Z,0
2017-01-22T04:28:48.523Z,0
2017-01-22T04:29:59.919Z,0
2017-01-22T04:31:11.315Z,0
2017-01-22T04:32:22.961Z,0
2017-01-22T04:33:34.355Z,0
2017-01-22T04:34:45.943Z,0
2017-01-22T04:35:57.331Z,0
2017-01-22T04:37:08.725Z,0
2017-01-22T04:38:20.165Z,0
2017-01-22T04:39:31.560Z,0
2017-01-22T04:40:43.150Z,0
2017-01-22T04:41:54.570Z,0
2017-01-22T04:43:05.962Z,0
2017-01-22T04:44:17.410Z,0
2017-01-22T04:45:28.830Z,0
2017-01-22T04:46:40.222Z,0
2017-01-22T04:47:51.612Z,0
2017-01-22T04:49:03.198Z,0
2017-01-22T04:50:14.644Z,0
2017-01-22T04:51:26.035Z,0
2017-01-22T04:52:37.627Z,0
2017-01-22T04:53:49.011Z,0
2017-01-22T04:55:00.603Z,0
2017-01-22T04:56:12.038Z,0
2017-01-22T04:57:23.435Z,0
2017-01-22T04:58:34.825Z,0
2017-01-22T04:59:46.217Z,0
2017-01-22T05:00:57.611Z,0
2017-01-22T05:02:09.057Z,0
2017-01-22T05:03:20.446Z,0
2017-01-22T05:04:31.839Z,0
2017-01-22T05:05:43.430Z,0
2017-01-22T05:06:54.822Z,0
2017-01-22T05:08:06.265Z,0
2017-01-22T05:09:17.664Z,0
2017-01-22T05:10:29.045Z,0
2017-01-22T05:11:40.437Z,0
2017-01-22T05:12:51.832Z,0
2017-01-22T05:14:03.273Z,0
2017-01-22T05:15:14.660Z,0
2017-01-22T05:16:26.054Z,0
2017-01-22T05:17:37.446Z,0
2017-01-22T05:18:48.840Z,0
2017-01-22T05:20:00.279Z,0
2017-01-22T05:21:11.666Z,0
2017-01-22T05:22:23.057Z,0
2017-01-22T05:23:34.644Z,0
2017-01-22T05:24:46.247Z,0
2017-01-22T05:25:57.681Z,0
2017-01-22T05:27:09.276Z,0
2017-01-22T05:28:20.668Z,0
2017-01-22T05:29:32.051Z,0
2017-01-22T05:30:43.453Z,0
2017-01-22T05:31:55.095Z,0
2017-01-22T05:33:06.491Z,0
2017-01-22T05:34:18.083Z,0
2017-01-22T05:35:29.464Z,0
2017-01-22T05:36:40.858Z,0
2017-01-22T05:37:52.299Z,0
2017-01-22T05:39:03.692Z,0
2017-01-22T05:40:15.289Z,0
2017-01-22T05:41:26.682Z,0
2017-01-22T05:42:38.079Z,0
2017-01-22T05:43:49.517Z,0
2017-01-22T05:45:00.947Z,0
2017-01-22T05:46:12.336Z,0
2017-01-22T05:47:23.724Z,0
2017-01-22T05:48:35.116Z,0
2017-01-22T05:49:46.589Z,0
2017-01-22T05:50:58.195Z,0
2017-01-22T05:52:09.591Z,0
2017-01-22T05:53:20.979Z,0
2017-01-22T05:54:32.574Z,0
2017-01-22T05:55:44.017Z,0
2017-01-22T05:56:55.409Z,0
2017-01-22T05:58:06.800Z,0
2017-01-22T05:59:18.191Z,0
2017-01-22T06:00:29.583Z,0
2017-01-22T06:01:41.024Z,0
2017-01-22T06:02:52.425Z,0
2017-01-22T06:04:03.811Z,0
2017-01-22T06:05:15.199Z,0
2017-01-22T06:06:26.593Z,0
2017-01-22T06:07:38.230Z,0
2017-01-22T06:08:49.830Z,0
2017-01-22T06:10:01.423Z,0
2017-01-22T06:11:12.813Z,0
2017-01-22T06:12:24.204Z,0
2017-01-22T06:13:35.845Z,0
2017-01-22T06:14:47.463Z,0
2017-01-22T06:15:58.854Z,0
2017-01-22T06:17:10.250Z,0
2017-01-22T06:18:21.650Z,0
2017-01-22T06:19:33.094Z,0
2017-01-22T06:20:44.479Z,0
2017-01-22T06:21:55.872Z,0
2017-01-22T06:23:07.261Z,0
2017-01-22T06:24:18.663Z,0
2017-01-22T06:25:30.301Z,0
2017-01-22T06:26:41.697Z,0
2017-01-22T06:27:53.085Z,0
2017-01-22T06:29:04.483Z,0
2017-01-22T06:30:15.880Z,0
2017-01-22T06:31:27.319Z,0
2017-01-22T06:32:38.913Z,0
2017-01-22T06:33:50.298Z,0
2017-01-22T06:35:01.690Z,0
2017-01-22T06:36:13.284Z,0
2017-01-22T06:37:24.725Z,4
2017-01-22T06:38:36.108Z,4
2017-01-22T06:39:47.501Z,0
2017-01-22T06:40:58.900Z,4
2017-01-22T06:42:10.296Z,0
2017-01-22T06:43:21.939Z,4
2017-01-22T06:44:33.347Z,4
2017-01-22T06:45:44.732Z,4
2017-01-22T06:46:56.123Z,4
2017-01-22T06:48:07.537Z,8
2017-01-22T06:49:18.984Z,8
2017-01-22T06:50:30.384Z,8
2017-01-22T06:51:41.783Z,12
2017-01-22T06:52:53.373Z,16
2017-01-22T06:54:04.767Z,16
2017-01-22T06:55:16.213Z,20
2017-01-22T06:56:27.808Z,24
2017-01-22T06:57:39.199Z,32
2017-01-22T06:58:50.600Z,36
2017-01-22T07:00:02.012Z,40
2017-01-22T07:01:13.459Z,48
2017-01-22T07:02:24.848Z,56
2017-01-22T07:03:36.439Z,64
2017-01-22T07:04:47.830Z,76
2017-01-22T07:05:59.220Z,88
2017-01-22T07:07:10.660Z,100
2017-01-22T07:08:22.057Z,116
2017-01-22T07:09:33.640Z,136
2017-01-22T07:10:45.232Z,152
2017-01-22T07:11:56.633Z,176
2017-01-22T07:13:08.075Z,192
2017-01-22T07:14:19.666Z,220
2017-01-22T07:15:31.058Z,240
2017-01-22T07:16:42.438Z,272
2017-01-22T07:17:53.833Z,296
2017-01-22T07:19:05.422Z,328
2017-01-22T07:20:16.818Z,360
2017-01-22T07:21:28.409Z,392
2017-01-22T07:22:39.797Z,428
2017-01-22T07:23:51.230Z,468
2017-01-22T07:25:02.617Z,504
2017-01-22T07:26:14.005Z,548
2017-01-22T07:27:25.399Z,592
2017-01-22T07:28:36.789Z,636
2017-01-22T07:29:48.232Z,688
2017-01-22T07:30:59.622Z,740
2017-01-22T07:32:11.013Z,792
2017-01-22T07:33:22.406Z,848
2017-01-22T07:34:33.807Z,912
2017-01-22T07:35:45.452Z,976
2017-01-22T07:36:56.848Z,1032
2017-01-22T07:38:08.245Z,1096
2017-01-22T07:39:19.638Z,1164
2017-01-22T07:40:31.037Z,1236
2017-01-22T07:41:42.481Z,1312
2017-01-22T07:42:53.877Z,1416
2017-01-22T07:44:05.266Z,1492
2017-01-22T07:45:16.666Z,1556
2017-01-22T07:46:28.055Z,1620
2017-01-22T07:47:39.500Z,1684
2017-01-22T07:48:51.093Z,1744
2017-01-22T07:50:02.499Z,1820
2017-01-22T07:51:13.923Z,1904
2017-01-22T07:52:25.315Z,1988
2017-01-22T07:53:36.757Z,2064
2017-01-22T07:54:48.152Z,2144
2017-01-22T07:55:59.550Z,2224
2017-01-22T07:57:10.951Z,2300
2017-01-22T07:58:22.744Z,2420
2017-01-22T07:59:34.189Z,3524
2017-01-22T08:00:45.775Z,3508
2017-01-22T08:01:57.378Z,2696
2017-01-22T08:03:08.776Z,2732
2017-01-22T08:04:20.173Z,3064
2017-01-22T08:05:31.617Z,3136
2017-01-22T08:06:43.015Z,3700
2017-01-22T08:07:54.415Z,4160
2017-01-22T08:09:05.803Z,4796
2017-01-22T08:10:17.198Z,7096
2017-01-22T08:11:28.880Z,6120
2017-01-22T08:12:40.270Z,6184
2017-01-22T08:13:52.066Z,8176
2017-01-22T08:15:03.462Z,8036
2017-01-22T08:16:14.856Z,9256
2017-01-22T08:17:26.302Z,13920
2017-01-22T08:18:37.698Z,16000
2017-01-22T08:19:49.098Z,11396
2017-01-22T08:21:00.494Z,8632
2017-01-22T08:22:11.886Z,7616
2017-01-22T08:23:23.338Z,13184
2017-01-22T08:24:34.735Z,9572
2017-01-22T08:25:46.129Z,6608
2017-01-22T08:26:57.725Z,6736
2017-01-22T08:28:09.122Z,4788
2017-01-22T08:29:20.568Z,5884
2017-01-22T08:30:31.958Z,8040
2017-01-22T08:31:43.375Z,10476
2017-01-22T08:32:54.974Z,11576
2017-01-22T08:34:06.370Z,10576
2017-01-22T08:35:18.011Z,11352
2017-01-22T08:36:29.403Z,11976
2017-01-22T08:37:41.002Z,10960
2017-01-22T08:38:52.400Z,9980
2017-01-22T08:40:03.798Z,11248
2017-01-22T08:41:15.451Z,11632
2017-01-22T08:42:26.850Z,12200
2017-01-22T08:43:38.251Z,13952
2017-01-22T08:44:49.652Z,13696
2017-01-22T08:46:01.248Z,17056
2017-01-22T08:47:12.697Z,20160
2017-01-22T08:48:24.101Z,20576
2017-01-22T08:49:35.700Z,20064
2017-01-22T08:50:47.105Z,16608
2017-01-22T08:51:58.705Z,15744
2017-01-22T08:53:10.149Z,16192
2017-01-22T08:54:21.774Z,8756
2017-01-22T08:55:33.375Z,16352
2017-01-22T08:56:44.773Z,24992
2017-01-22T08:57:56.375Z,26688
2017-01-22T08:59:07.820Z,22048
2017-01-22T09:00:19.215Z,23840
2017-01-22T09:01:30.614Z,29344
2017-01-22T09:02:42.014Z,33376
2017-01-22T09:03:53.406Z,36832
2017-01-22T09:05:04.856Z,35040
2017-01-22T09:06:16.252Z,31744
2017-01-22T09:07:27.658Z,36416
2017-01-22T09:08:39.054Z,40576
2017-01-22T09:09:50.653Z,40416
2017-01-22T09:11:02.099Z,33760
2017-01-22T09:12:13.502Z,33728
2017-01-22T09:13:25.303Z,30400
2017-01-22T09:14:36.911Z,28992
2017-01-22T09:15:48.517Z,38848
2017-01-22T09:16:59.975Z,45536
2017-01-22T09:18:11.378Z,45600
2017-01-22T09:19:22.779Z,49344
2017-01-22T09:20:34.171Z,43616
2017-01-22T09:21:45.586Z,36128
2017-01-22T09:22:57.049Z,42272
2017-01-22T09:24:08.451Z,51200
2017-01-22T09:25:19.864Z,52608
2017-01-22T09:26:31.280Z,53312
2017-01-22T09:27:42.692Z,58592
2017-01-22T09:28:54.153Z,60224
2017-01-22T09:30:05.761Z,62208
2017-01-22T09:31:17.176Z,63200
2017-01-22T09:32:28.583Z,61344
2017-01-22T09:33:39.988Z,59456
2017-01-22T09:34:51.444Z,61536
2017-01-22T09:36:02.856Z,62752
2017-01-22T09:37:14.262Z,62272
2017-01-22T09:38:25.669Z,63968
2017-01-22T09:39:37.077Z,62880
2017-01-22T09:40:48.534Z,63104
2017-01-22T09:41:59.946Z,63872
2017-01-22T09:43:11.358Z,62976
2017-01-22T09:44:22.770Z,62304
2017-01-22T09:45:34.180Z,64224
2017-01-22T09:46:45.646Z,65984
2017-01-22T09:47:57.061Z,67264
2017-01-22T09:49:08.494Z,66816
2017-01-22T09:50:19.900Z,65120
2017-01-22T09:51:31.313Z,66592
2017-01-22T09:52:42.974Z,67584
2017-01-22T09:53:54.588Z,67744
2017-01-22T09:55:06.007Z,68032
2017-01-22T09:56:17.411Z,66624
2017-01-22T09:57:28.826Z,65472
2017-01-22T09:58:40.290Z,63744
2017-01-22T09:59:51.902Z,63360
2017-01-22T10:01:03.320Z,62144
2017-01-22T10:02:14.772Z,60736
2017-01-22T10:03:26.391Z,60960
2017-01-22T10:04:37.854Z,61536
2017-01-22T10:05:49.269Z,63552
2017-01-22T10:07:00.696Z,63456
2017-01-22T10:08:12.107Z,63456
2017-01-22T10:09:23.720Z,61344
2017-01-22T10:10:35.192Z,58080
2017-01-22T10:11:46.613Z,57696
2017-01-22T10:12:58.023Z,58112
2017-01-22T10:14:09.432Z,55968
2017-01-22T10:15:20.870Z,56512
2017-01-22T10:16:32.536Z,55744
2017-01-22T10:17:43.955Z,56032
2017-01-22T10:18:55.575Z,54688
2017-01-22T10:20:06.997Z,54048
2017-01-22T10:21:18.613Z,54272
2017-01-22T10:22:30.080Z,54432
2017-01-22T10:23:41.497Z,55264
2017-01-22T10:24:52.909Z,55968
2017-01-22T10:26:04.330Z,54656
2017-01-22T10:27:15.745Z,52128
2017-01-22T10:28:27.215Z,52000
2017-01-22T10:29:38.636Z,55680
2017-01-22T10:30:50.252Z,54304
2017-01-22T10:32:01.666Z,54048
2017-01-22T10:33:13.282Z,54880
2017-01-22T10:34:24.752Z,54240
2017-01-22T10:35:36.181Z,53472
2017-01-22T10:36:47.606Z,53984
2017-01-22T10:37:59.029Z,56192
2017-01-22T10:39:10.450Z,57792
2017-01-22T10:40:21.919Z,58240
2017-01-22T10:41:33.334Z,59264
2017-01-22T10:42:44.953Z,59712
2017-01-22T10:43:56.371Z,57088
2017-01-22T10:45:07.793Z,56736
2017-01-22T10:46:19.260Z,55616
2017-01-22T10:47:30.678Z,53664
2017-01-22T10:48:42.095Z,54080
2017-01-22T10:49:53.529Z,53344
2017-01-22T10:51:05.141Z,51520
2017-01-22T10:52:16.615Z,48256
2017-01-22T10:53:28.036Z,49376
2017-01-22T10:54:39.452Z,48352
2017-01-22T10:55:50.897Z,47968
2017-01-22T10:57:02.313Z,49504
2017-01-22T10:58:13.784Z,48416
2017-01-22T10:59:25.203Z,46880
2017-01-22T11:00:36.624Z,48032
2017-01-22T11:01:48.038Z,47104
2017-01-22T11:02:59.454Z,46880
2017-01-22T11:04:10.922Z,48256
2017-01-22T11:05:22.541Z,46432
2017-01-22T11:06:34.156Z,46240
2017-01-22T11:07:45.777Z,47232
2017-01-22T11:08:57.195Z,47360
2017-01-22T11:10:08.888Z,46624
2017-01-22T11:11:20.507Z,47488
2017-01-22T11:12:31.928Z,47296
2017-01-22T11:13:43.348Z,48288
2017-01-22T11:14:54.775Z,48832
2017-01-22T11:16:06.234Z,47584
2017-01-22T11:17:17.649Z,42496
2017-01-22T11:18:29.063Z,43840
2017-01-22T11:19:40.486Z,45504
2017-01-22T11:20:51.936Z,47840
2017-01-22T11:22:03.403Z,46080
2017-01-22T11:23:14.818Z,42336
2017-01-22T11:24:26.227Z,41344
2017-01-22T11:25:37.656Z,39584
2017-01-22T11:26:49.078Z,43488
2017-01-22T11:28:00.544Z,40768
2017-01-22T11:29:11.957Z,40416
2017-01-22T11:30:23.381Z,42144
2017-01-22T11:31:34.808Z,40864
2017-01-22T11:32:46.232Z,37184
2017-01-22T11:33:57.692Z,31872
2017-01-22T11:35:09.110Z,30560
2017-01-22T11:36:20.530Z,26720
2017-01-22T11:37:31.949Z,14332
2017-01-22T11:38:43.366Z,20928
2017-01-22T11:39:54.844Z,23328
2017-01-22T11:41:06.268Z,20480
2017-01-22T11:42:17.682Z,21984
2017-01-22T11:43:29.088Z,21920
2017-01-22T11:44:40.507Z,30976
2017-01-22T11:45:51.965Z,32256
2017-01-22T11:47:03.777Z,28704
2017-01-22T11:48:15.185Z,22176
2017-01-22T11:49:26.600Z,16736
2017-01-22T11:50:37.999Z,17536
2017-01-22T11:51:49.658Z,25792
2017-01-22T11:53:01.064Z,29408
2017-01-22T11:54:12.477Z,28288
2017-01-22T11:55:23.890Z,26592
2017-01-22T11:56:35.298Z,26240
2017-01-22T11:57:46.754Z,29056
2017-01-22T11:58:58.163Z,30176
2017-01-22T12:00:09.581Z,36064
2017-01-22T12:01:20.994Z,36992
2017-01-22T12:02:32.402Z,35456
2017-01-22T12:03:44.067Z,34304
2017-01-22T12:04:55.469Z,29504
2017-01-22T12:06:06.915Z,34816
2017-01-22T12:07:18.334Z,37184
2017-01-22T12:08:29.951Z,37984
2017-01-22T12:09:41.412Z,38368
2017-01-22T12:10:52.821Z,37632
2017-01-22T12:12:04.631Z,33120
2017-01-22T12:13:16.052Z,21120
2017-01-22T12:14:27.472Z,20896
2017-01-22T12:15:39.131Z,27616
2017-01-22T12:16:50.550Z,29312
2017-01-22T12:18:02.167Z,24320
2017-01-22T12:19:13.575Z,10312
2017-01-22T12:20:24.969Z,21056
2017-01-22T12:21:36.431Z,29632
2017-01-22T12:22:47.835Z,18496
2017-01-22T12:23:59.246Z,10932
2017-01-22T12:25:10.660Z,13040
2017-01-22T12:26:22.282Z,25408
2017-01-22T12:27:33.764Z,26208
2017-01-22T12:28:45.179Z,28352
2017-01-22T12:29:56.794Z,29664
2017-01-22T12:31:08.265Z,26304
2017-01-22T12:32:19.671Z,23520
2017-01-22T12:33:31.127Z,22624
2017-01-22T12:34:42.535Z,21824
2017-01-22T12:35:53.950Z,23552
2017-01-22T12:37:05.360Z,23232
2017-01-22T12:38:16.965Z,17152
2017-01-22T12:39:28.430Z,10904
2017-01-22T12:40:40.041Z,22336
2017-01-22T12:41:51.649Z,23680
2017-01-22T12:43:03.258Z,22016
2017-01-22T12:44:14.864Z,20128
2017-01-22T12:45:26.357Z,21440
2017-01-22T12:46:37.967Z,14064
2017-01-22T12:47:49.392Z,17376
2017-01-22T12:49:00.799Z,23168
2017-01-22T12:50:12.413Z,23776
2017-01-22T12:51:23.876Z,23104
2017-01-22T12:52:35.480Z,23296
2017-01-22T12:53:47.131Z,21376
2017-01-22T12:54:58.778Z,20864
2017-01-22T12:56:10.392Z,20768
2017-01-22T12:57:21.857Z,19648
2017-01-22T12:58:33.468Z,19200
2017-01-22T12:59:44.882Z,19296
2017-01-22T13:00:56.306Z,18560
2017-01-22T13:02:07.715Z,15584
2017-01-22T13:03:19.170Z,15232
2017-01-22T13:04:30.573Z,18400
2017-01-22T13:05:41.989Z,13928
2017-01-22T13:06:53.391Z,12804
2017-01-22T13:08:05.000Z,14512
2017-01-22T13:09:16.469Z,14688
2017-01-22T13:10:27.878Z,13480
2017-01-22T13:11:39.500Z,12752
2017-01-22T13:12:51.103Z,10120
2017-01-22T13:14:02.711Z,10572
2017-01-22T13:15:14.169Z,10612
2017-01-22T13:16:25.578Z,8864
2017-01-22T13:17:36.988Z,8348
2017-01-22T13:18:48.392Z,8760
2017-01-22T13:19:59.801Z,7880
2017-01-22T13:21:11.267Z,6756
2017-01-22T13:22:22.679Z,9108
2017-01-22T13:23:34.079Z,9308
2017-01-22T13:24:45.687Z,7268
2017-01-22T13:25:57.101Z,6900
2017-01-22T13:27:08.558Z,7024
2017-01-22T13:28:20.174Z,7820
2017-01-22T13:29:31.585Z,8780
2017-01-22T13:30:43.003Z,9084
2017-01-22T13:31:54.412Z,8812
2017-01-22T13:33:06.077Z,10220
2017-01-22T13:34:17.489Z,10848
2017-01-22T13:35:28.899Z,11020
2017-01-22T13:36:40.493Z,8636
2017-01-22T13:37:51.911Z,8240
2017-01-22T13:39:03.360Z,8860
2017-01-22T13:40:14.767Z,6060
2017-01-22T13:41:26.173Z,7992
2017-01-22T13:42:37.571Z,9072
2017-01-22T13:43:48.972Z,8280
2017-01-22T13:45:00.426Z,7736
2017-01-22T13:46:12.047Z,7528
2017-01-22T13:47:23.472Z,6720
2017-01-22T13:48:34.880Z,6436
2017-01-22T13:49:46.501Z,6352
2017-01-22T13:50:57.949Z,6052
2017-01-22T13:52:09.354Z,4996
2017-01-22T13:53:20.757Z,5004
2017-01-22T13:54:32.163Z,5356
2017-01-22T13:55:43.593Z,4908
2017-01-22T13:56:55.050Z,5056
2017-01-22T13:58:06.477Z,5716
2017-01-22T13:59:18.086Z,5404
2017-01-22T14:00:29.482Z,4716
2017-01-22T14:01:40.892Z,3872
2017-01-22T14:02:52.351Z,3820
2017-01-22T14:04:03.952Z,3788
2017-01-22T14:05:15.560Z,3760
2017-01-22T14:06:26.963Z,3916
2017-01-22T14:07:38.365Z,4256
2017-01-22T14:08:49.823Z,4252
2017-01-22T14:10:01.232Z,4208
2017-01-22T14:11:12.843Z,4160
2017-01-22T14:12:24.250Z,4140
2017-01-22T14:13:35.658Z,4164
2017-01-22T14:14:47.315Z,4096
2017-01-22T14:15:58.923Z,3824
2017-01-22T14:17:10.325Z,3768
2017-01-22T14:18:21.731Z,4028
2017-01-22T14:19:33.141Z,3956
2017-01-22T14:20:44.809Z,3788
2017-01-22T14:21:56.210Z,3532
2017-01-22T14:23:07.814Z,3252
2017-01-22T14:24:19.220Z,3188
2017-01-22T14:25:30.625Z,3148
2017-01-22T14:26:42.074Z,3120
2017-01-22T14:27:53.489Z,3140
2017-01-22T14:29:04.891Z,3148
2017-01-22T14:30:16.496Z,3132
2017-01-22T14:31:27.905Z,3096
2017-01-22T14:32:39.363Z,3064
2017-01-22T14:33:50.788Z,2992
2017-01-22T14:35:02.185Z,2952
2017-01-22T14:36:13.792Z,2888
2017-01-22T14:37:25.197Z,2844
2017-01-22T14:38:36.653Z,2808
2017-01-22T14:39:48.062Z,2764
2017-01-22T14:40:59.469Z,2732
2017-01-22T14:42:10.868Z,2688
2017-01-22T14:43:22.270Z,2648
2017-01-22T14:44:33.720Z,2608
2017-01-22T14:45:45.322Z,2568
2017-01-22T14:46:56.922Z,2528
2017-01-22T14:48:08.528Z,2492
2017-01-22T14:49:19.932Z,2456
2017-01-22T14:50:31.382Z,2420
2017-01-22T14:51:42.808Z,2384
2017-01-22T14:52:54.206Z,2348
2017-01-22T14:54:05.608Z,2316
2017-01-22T14:55:17.018Z,2248
2017-01-22T14:56:28.467Z,2180
2017-01-22T14:57:39.872Z,2148
2017-01-22T14:58:51.284Z,2136
2017-01-22T15:00:02.677Z,2112
2017-01-22T15:01:14.084Z,2064
2017-01-22T15:02:25.536Z,2028
2017-01-22T15:03:37.145Z,1960
2017-01-22T15:04:48.545Z,1860
2017-01-22T15:05:59.947Z,1780
2017-01-22T15:07:11.356Z,1764
2017-01-22T15:08:22.809Z,1772
2017-01-22T15:09:34.231Z,1768
2017-01-22T15:10:45.642Z,1748
2017-01-22T15:11:57.033Z,1712
2017-01-22T15:13:08.440Z,1672
2017-01-22T15:14:19.840Z,1628
2017-01-22T15:15:31.238Z,1588
2017-01-22T15:16:42.646Z,1544
2017-01-22T15:17:54.055Z,1504
2017-01-22T15:19:05.516Z,1460
2017-01-22T15:20:16.915Z,1404
2017-01-22T15:21:28.317Z,1340
2017-01-22T15:22:39.714Z,1304
2017-01-22T15:23:51.323Z,1280
2017-01-22T15:25:02.777Z,1248
2017-01-22T15:26:14.181Z,1212
2017-01-22T15:27:25.591Z,1168
2017-01-22T15:28:37.195Z,1132
2017-01-22T15:29:48.806Z,1088
2017-01-22T15:31:00.257Z,1048
2017-01-22T15:32:11.663Z,1008
2017-01-22T15:33:23.273Z,964
2017-01-22T15:34:34.674Z,924
2017-01-22T15:35:46.085Z,884
2017-01-22T15:36:57.536Z,840
2017-01-22T15:38:08.945Z,800
2017-01-22T15:39:20.354Z,760
2017-01-22T15:40:31.756Z,720
2017-01-22T15:41:43.363Z,676
2017-01-22T15:42:54.810Z,636
2017-01-22T15:44:06.242Z,592
2017-01-22T15:45:17.636Z,556
2017-01-22T15:46:29.034Z,524
2017-01-22T15:47:40.432Z,488
2017-01-22T15:48:51.879Z,452
2017-01-22T15:50:03.284Z,420
2017-01-22T15:51:14.682Z,392
2017-01-22T15:52:26.081Z,364
2017-01-22T15:53:37.689Z,336
2017-01-22T15:54:49.144Z,312
2017-01-22T15:56:00.544Z,284
2017-01-22T15:57:11.950Z,260
2017-01-22T15:58:23.367Z,236
2017-01-22T15:59:34.773Z,216
2017-01-22T16:00:46.228Z,192
2017-01-22T16:01:57.639Z,172
2017-01-22T16:03:09.045Z,156
2017-01-22T16:04:20.436Z,140
2017-01-22T16:05:31.864Z,124
2017-01-22T16:06:43.315Z,108
2017-01-22T16:07:54.923Z,96
2017-01-22T16:09:06.325Z,84
2017-01-22T16:10:17.931Z,76
2017-01-22T16:11:29.336Z,64
2017-01-22T16:12:40.990Z,56
2017-01-22T16:13:52.402Z,48
2017-01-22T16:15:03.804Z,40
2017-01-22T16:16:15.199Z,32
2017-01-22T16:17:26.592Z,28
2017-01-22T16:18:38.241Z,24
2017-01-22T16:19:49.639Z,20
2017-01-22T16:21:01.249Z,16
2017-01-22T16:22:12.657Z,12
2017-01-22T16:23:24.063Z,12
2017-01-22T16:24:35.502Z,8
2017-01-22T16:25:46.909Z,8
2017-01-22T16:26:58.503Z,4